sensor_id;sensor_type;location;lat;lon;timestamp;P1;durP1;ratioP1;P2;durP2;ratioP2
60030;SDS011;45901;47.600;9.890;2023-08-17T00:01:35;6.37;;;2.40;;
60030;SDS011;45901;47.600;9.890;2023-08-17T00:04:02;5.53;;;2.17;;
60030;SDS011;45901;47.600;9.890;2023-08-17T00:06:30;4.43;;;2.20;;
60030;SDS011;45901;47.600;9.890;2023-08-17T00:08:57;5.17;;;2.50;;
60030;SDS011;45901;47.600;9.890;2023-08-17T00:11:24;3.57;;;2.00;;
60030;SDS011;45901;47.600;9.890;2023-08-17T00:13:52;2.83;;;1.70;;
60030;SDS011;45901;47.600;9.890;2023-08-17T00:16:19;4.70;;;2.23;;
60030;SDS011;45901;47.600;9.890;2023-08-17T00:18:47;4.20;;;2.30;;
60030;SDS011;45901;47.600;9.890;2023-08-17T00:21:14;3.83;;;2.17;;
60030;SDS011;45901;47.600;9.890;2023-08-17T00:23:41;3.93;;;2.23;;
60030;SDS011;45901;47.600;9.890;2023-08-17T00:26:08;3.70;;;2.10;;
60030;SDS011;45901;47.600;9.890;2023-08-17T00:28:35;3.63;;;1.83;;
60030;SDS011;45901;47.600;9.890;2023-08-17T00:31:04;4.43;;;2.20;;
60030;SDS011;45901;47.600;9.890;2023-08-17T00:33:31;5.63;;;2.27;;
60030;SDS011;45901;47.600;9.890;2023-08-17T00:35:58;2.50;;;1.67;;
60030;SDS011;45901;47.600;9.890;2023-08-17T00:38:25;5.20;;;1.77;;
60030;SDS011;45901;47.600;9.890;2023-08-17T00:40:52;6.10;;;1.90;;
60030;SDS011;45901;47.600;9.890;2023-08-17T00:43:20;1.97;;;1.37;;
60030;SDS011;45901;47.600;9.890;2023-08-17T00:45:47;3.67;;;1.80;;
60030;SDS011;45901;47.600;9.890;2023-08-17T00:48:16;2.93;;;1.80;;
60030;SDS011;45901;47.600;9.890;2023-08-17T00:50:43;4.83;;;2.00;;
60030;SDS011;45901;47.600;9.890;2023-08-17T00:53:11;3.47;;;1.90;;
60030;SDS011;45901;47.600;9.890;2023-08-17T00:55:38;3.17;;;1.50;;
60030;SDS011;45901;47.600;9.890;2023-08-17T00:58:05;3.67;;;1.77;;
60030;SDS011;45901;47.600;9.890;2023-08-17T01:00:33;4.43;;;1.63;;
60030;SDS011;45901;47.600;9.890;2023-08-17T01:03:00;4.10;;;1.97;;
60030;SDS011;45901;47.600;9.890;2023-08-17T01:05:29;2.63;;;1.50;;
60030;SDS011;45901;47.600;9.890;2023-08-17T01:07:57;4.53;;;1.77;;
60030;SDS011;45901;47.600;9.890;2023-08-17T01:10:25;4.07;;;1.80;;
60030;SDS011;45901;47.600;9.890;2023-08-17T01:13:00;3.40;;;2.20;;
60030;SDS011;45901;47.600;9.890;2023-08-17T01:15:36;3.63;;;1.83;;
60030;SDS011;45901;47.600;9.890;2023-08-17T01:18:10;4.87;;;1.80;;
60030;SDS011;45901;47.600;9.890;2023-08-17T01:20:48;6.07;;;1.77;;
60030;SDS011;45901;47.600;9.890;2023-08-17T01:23:17;5.37;;;1.80;;
60030;SDS011;45901;47.600;9.890;2023-08-17T01:25:44;4.00;;;1.47;;
60030;SDS011;45901;47.600;9.890;2023-08-17T01:28:11;5.80;;;1.70;;
60030;SDS011;45901;47.600;9.890;2023-08-17T01:30:39;3.73;;;1.90;;
60030;SDS011;45901;47.600;9.890;2023-08-17T01:33:16;2.73;;;1.67;;
60030;SDS011;45901;47.600;9.890;2023-08-17T01:35:54;4.73;;;1.43;;
60030;SDS011;45901;47.600;9.890;2023-08-17T01:38:31;1.53;;;1.13;;
60030;SDS011;45901;47.600;9.890;2023-08-17T01:41:00;2.53;;;1.67;;
60030;SDS011;45901;47.600;9.890;2023-08-17T01:43:28;2.97;;;1.93;;
60030;SDS011;45901;47.600;9.890;2023-08-17T01:45:56;4.07;;;1.90;;
60030;SDS011;45901;47.600;9.890;2023-08-17T01:48:23;5.53;;;1.73;;
60030;SDS011;45901;47.600;9.890;2023-08-17T01:50:50;4.60;;;1.87;;
60030;SDS011;45901;47.600;9.890;2023-08-17T01:53:17;4.10;;;2.07;;
60030;SDS011;45901;47.600;9.890;2023-08-17T01:55:45;3.80;;;1.63;;
60030;SDS011;45901;47.600;9.890;2023-08-17T01:58:12;3.13;;;1.83;;
60030;SDS011;45901;47.600;9.890;2023-08-17T02:00:39;4.20;;;2.17;;
60030;SDS011;45901;47.600;9.890;2023-08-17T02:03:06;3.33;;;1.73;;
60030;SDS011;45901;47.600;9.890;2023-08-17T02:05:33;3.03;;;1.70;;
60030;SDS011;45901;47.600;9.890;2023-08-17T02:08:00;5.33;;;1.80;;
60030;SDS011;45901;47.600;9.890;2023-08-17T02:10:27;3.07;;;1.90;;
60030;SDS011;45901;47.600;9.890;2023-08-17T02:12:55;7.07;;;2.40;;
60030;SDS011;45901;47.600;9.890;2023-08-17T02:15:22;4.07;;;2.10;;
60030;SDS011;45901;47.600;9.890;2023-08-17T02:17:50;4.47;;;1.90;;
60030;SDS011;45901;47.600;9.890;2023-08-17T02:20:17;2.63;;;2.00;;
60030;SDS011;45901;47.600;9.890;2023-08-17T02:22:43;3.67;;;2.10;;
60030;SDS011;45901;47.600;9.890;2023-08-17T02:25:10;3.90;;;2.10;;
60030;SDS011;45901;47.600;9.890;2023-08-17T02:27:37;3.60;;;2.00;;
60030;SDS011;45901;47.600;9.890;2023-08-17T02:30:06;4.43;;;1.90;;
60030;SDS011;45901;47.600;9.890;2023-08-17T02:32:34;3.43;;;2.03;;
60030;SDS011;45901;47.600;9.890;2023-08-17T02:35:01;4.77;;;2.13;;
60030;SDS011;45901;47.600;9.890;2023-08-17T02:39:54;4.57;;;2.13;;
60030;SDS011;45901;47.600;9.890;2023-08-17T02:42:21;3.57;;;2.00;;
60030;SDS011;45901;47.600;9.890;2023-08-17T02:44:49;4.47;;;2.20;;
60030;SDS011;45901;47.600;9.890;2023-08-17T02:47:17;4.73;;;2.03;;
60030;SDS011;45901;47.600;9.890;2023-08-17T02:49:44;7.40;;;2.60;;
60030;SDS011;45901;47.600;9.890;2023-08-17T02:52:14;4.73;;;2.37;;
60030;SDS011;45901;47.600;9.890;2023-08-17T02:54:41;6.13;;;2.07;;
60030;SDS011;45901;47.600;9.890;2023-08-17T02:57:08;6.07;;;2.37;;
60030;SDS011;45901;47.600;9.890;2023-08-17T02:59:35;6.07;;;2.10;;
60030;SDS011;45901;47.600;9.890;2023-08-17T03:02:02;4.53;;;2.10;;
60030;SDS011;45901;47.600;9.890;2023-08-17T03:04:31;6.27;;;2.03;;
60030;SDS011;45901;47.600;9.890;2023-08-17T03:06:58;3.17;;;2.07;;
60030;SDS011;45901;47.600;9.890;2023-08-17T03:09:25;3.23;;;2.00;;
60030;SDS011;45901;47.600;9.890;2023-08-17T03:11:52;2.93;;;2.00;;
60030;SDS011;45901;47.600;9.890;2023-08-17T03:14:19;3.43;;;2.23;;
60030;SDS011;45901;47.600;9.890;2023-08-17T03:16:46;3.07;;;2.17;;
60030;SDS011;45901;47.600;9.890;2023-08-17T03:19:14;3.23;;;2.00;;
60030;SDS011;45901;47.600;9.890;2023-08-17T03:21:42;3.67;;;1.77;;
60030;SDS011;45901;47.600;9.890;2023-08-17T03:24:09;3.40;;;2.00;;
60030;SDS011;45901;47.600;9.890;2023-08-17T03:26:36;3.30;;;2.20;;
60030;SDS011;45901;47.600;9.890;2023-08-17T03:29:03;6.07;;;2.40;;
60030;SDS011;45901;47.600;9.890;2023-08-17T03:31:31;4.30;;;2.30;;
60030;SDS011;45901;47.600;9.890;2023-08-17T03:33:58;4.17;;;2.30;;
60030;SDS011;45901;47.600;9.890;2023-08-17T03:36:25;4.80;;;2.30;;
60030;SDS011;45901;47.600;9.890;2023-08-17T03:38:54;3.93;;;2.33;;
60030;SDS011;45901;47.600;9.890;2023-08-17T03:41:21;2.90;;;1.93;;
60030;SDS011;45901;47.600;9.890;2023-08-17T03:43:49;5.90;;;2.53;;
60030;SDS011;45901;47.600;9.890;2023-08-17T03:46:16;4.63;;;2.40;;
60030;SDS011;45901;47.600;9.890;2023-08-17T03:48:43;5.57;;;2.00;;
60030;SDS011;45901;47.600;9.890;2023-08-17T03:51:10;5.27;;;2.30;;
60030;SDS011;45901;47.600;9.890;2023-08-17T03:53:37;3.17;;;1.97;;
60030;SDS011;45901;47.600;9.890;2023-08-17T03:56:05;4.20;;;1.70;;
60030;SDS011;45901;47.600;9.890;2023-08-17T03:58:32;8.67;;;2.50;;
60030;SDS011;45901;47.600;9.890;2023-08-17T04:00:59;3.87;;;1.87;;
60030;SDS011;45901;47.600;9.890;2023-08-17T04:03:26;3.60;;;2.20;;
60030;SDS011;45901;47.600;9.890;2023-08-17T04:05:53;3.90;;;2.03;;
60030;SDS011;45901;47.600;9.890;2023-08-17T04:08:20;2.77;;;2.00;;
60030;SDS011;45901;47.600;9.890;2023-08-17T04:10:47;4.43;;;2.97;;
60030;SDS011;45901;47.600;9.890;2023-08-17T04:13:16;3.10;;;2.27;;
60030;SDS011;45901;47.600;9.890;2023-08-17T04:15:42;4.47;;;1.90;;
60030;SDS011;45901;47.600;9.890;2023-08-17T04:18:10;3.23;;;2.13;;
60030;SDS011;45901;47.600;9.890;2023-08-17T04:20:37;6.07;;;2.30;;
60030;SDS011;45901;47.600;9.890;2023-08-17T04:23:04;2.93;;;2.20;;
60030;SDS011;45901;47.600;9.890;2023-08-17T04:25:31;2.80;;;1.77;;
60030;SDS011;45901;47.600;9.890;2023-08-17T04:27:58;3.50;;;2.10;;
60030;SDS011;45901;47.600;9.890;2023-08-17T04:30:27;4.03;;;1.97;;
60030;SDS011;45901;47.600;9.890;2023-08-17T04:32:54;2.97;;;2.10;;
60030;SDS011;45901;47.600;9.890;2023-08-17T04:35:21;4.30;;;2.30;;
60030;SDS011;45901;47.600;9.890;2023-08-17T04:37:48;4.17;;;2.20;;
60030;SDS011;45901;47.600;9.890;2023-08-17T04:40:15;9.37;;;2.30;;
60030;SDS011;45901;47.600;9.890;2023-08-17T04:42:42;3.60;;;2.23;;
60030;SDS011;45901;47.600;9.890;2023-08-17T04:45:09;4.00;;;1.90;;
60030;SDS011;45901;47.600;9.890;2023-08-17T04:47:38;4.23;;;1.83;;
60030;SDS011;45901;47.600;9.890;2023-08-17T04:50:05;4.63;;;2.10;;
60030;SDS011;45901;47.600;9.890;2023-08-17T04:52:33;3.83;;;2.03;;
60030;SDS011;45901;47.600;9.890;2023-08-17T04:55:00;5.07;;;2.27;;
60030;SDS011;45901;47.600;9.890;2023-08-17T04:57:27;6.50;;;2.23;;
60030;SDS011;45901;47.600;9.890;2023-08-17T04:59:54;4.40;;;2.20;;
60030;SDS011;45901;47.600;9.890;2023-08-17T05:02:21;4.13;;;2.17;;
60030;SDS011;45901;47.600;9.890;2023-08-17T05:04:50;4.00;;;2.17;;
60030;SDS011;45901;47.600;9.890;2023-08-17T05:07:17;4.63;;;2.30;;
60030;SDS011;45901;47.600;9.890;2023-08-17T05:09:44;6.63;;;2.10;;
60030;SDS011;45901;47.600;9.890;2023-08-17T05:12:11;6.33;;;2.20;;
60030;SDS011;45901;47.600;9.890;2023-08-17T05:14:39;3.37;;;2.10;;
60030;SDS011;45901;47.600;9.890;2023-08-17T05:17:05;6.23;;;2.30;;
60030;SDS011;45901;47.600;9.890;2023-08-17T05:19:32;3.33;;;2.03;;
60030;SDS011;45901;47.600;9.890;2023-08-17T05:22:01;3.83;;;2.33;;
60030;SDS011;45901;47.600;9.890;2023-08-17T05:24:28;5.83;;;2.63;;
60030;SDS011;45901;47.600;9.890;2023-08-17T05:26:55;7.07;;;2.23;;
60030;SDS011;45901;47.600;9.890;2023-08-17T05:29:22;6.53;;;2.70;;
60030;SDS011;45901;47.600;9.890;2023-08-17T05:31:49;5.43;;;2.40;;
60030;SDS011;45901;47.600;9.890;2023-08-17T05:34:16;7.17;;;2.47;;
60030;SDS011;45901;47.600;9.890;2023-08-17T05:36:43;2.73;;;2.03;;
60030;SDS011;45901;47.600;9.890;2023-08-17T05:39:11;4.37;;;2.33;;
60030;SDS011;45901;47.600;9.890;2023-08-17T05:41:38;4.57;;;2.17;;
60030;SDS011;45901;47.600;9.890;2023-08-17T05:44:05;6.57;;;2.90;;
60030;SDS011;45901;47.600;9.890;2023-08-17T05:46:32;4.60;;;1.80;;
60030;SDS011;45901;47.600;9.890;2023-08-17T05:49:00;4.93;;;2.00;;
60030;SDS011;45901;47.600;9.890;2023-08-17T05:51:27;6.63;;;2.43;;
60030;SDS011;45901;47.600;9.890;2023-08-17T05:53:54;5.17;;;2.10;;
60030;SDS011;45901;47.600;9.890;2023-08-17T05:56:22;5.23;;;2.50;;
60030;SDS011;45901;47.600;9.890;2023-08-17T05:58:49;3.13;;;2.10;;
60030;SDS011;45901;47.600;9.890;2023-08-17T06:01:16;3.67;;;2.00;;
60030;SDS011;45901;47.600;9.890;2023-08-17T06:03:43;3.83;;;2.20;;
60030;SDS011;45901;47.600;9.890;2023-08-17T06:06:10;3.17;;;2.10;;
60030;SDS011;45901;47.600;9.890;2023-08-17T06:08:37;7.53;;;2.50;;
60030;SDS011;45901;47.600;9.890;2023-08-17T06:11:04;3.97;;;2.30;;
60030;SDS011;45901;47.600;9.890;2023-08-17T06:13:33;5.20;;;2.07;;
60030;SDS011;45901;47.600;9.890;2023-08-17T06:16:00;5.10;;;2.70;;
60030;SDS011;45901;47.600;9.890;2023-08-17T06:18:28;6.70;;;2.70;;
60030;SDS011;45901;47.600;9.890;2023-08-17T06:20:55;3.47;;;2.30;;
60030;SDS011;45901;47.600;9.890;2023-08-17T06:23:23;3.13;;;2.30;;
60030;SDS011;45901;47.600;9.890;2023-08-17T06:25:50;4.00;;;2.30;;
60030;SDS011;45901;47.600;9.890;2023-08-17T06:28:17;5.60;;;3.00;;
60030;SDS011;45901;47.600;9.890;2023-08-17T06:30:45;3.20;;;2.00;;
60030;SDS011;45901;47.600;9.890;2023-08-17T06:33:12;5.13;;;2.40;;
60030;SDS011;45901;47.600;9.890;2023-08-17T06:35:39;3.33;;;2.40;;
60030;SDS011;45901;47.600;9.890;2023-08-17T06:38:07;3.77;;;2.23;;
60030;SDS011;45901;47.600;9.890;2023-08-17T06:40:33;6.13;;;2.47;;
60030;SDS011;45901;47.600;9.890;2023-08-17T06:43:00;5.43;;;1.90;;
60030;SDS011;45901;47.600;9.890;2023-08-17T06:45:27;3.30;;;2.03;;
60030;SDS011;45901;47.600;9.890;2023-08-17T06:47:56;7.43;;;2.07;;
60030;SDS011;45901;47.600;9.890;2023-08-17T06:50:23;4.17;;;2.13;;
60030;SDS011;45901;47.600;9.890;2023-08-17T06:52:52;5.03;;;1.97;;
60030;SDS011;45901;47.600;9.890;2023-08-17T06:55:19;5.57;;;1.90;;
60030;SDS011;45901;47.600;9.890;2023-08-17T06:57:46;5.13;;;1.80;;
60030;SDS011;45901;47.600;9.890;2023-08-17T07:00:15;9.00;;;2.17;;
60030;SDS011;45901;47.600;9.890;2023-08-17T07:02:45;6.70;;;2.20;;
60030;SDS011;45901;47.600;9.890;2023-08-17T07:05:13;4.17;;;2.03;;
60030;SDS011;45901;47.600;9.890;2023-08-17T07:07:41;3.90;;;1.63;;
60030;SDS011;45901;47.600;9.890;2023-08-17T07:10:08;5.23;;;2.07;;
60030;SDS011;45901;47.600;9.890;2023-08-17T07:12:36;4.77;;;2.50;;
60030;SDS011;45901;47.600;9.890;2023-08-17T07:15:03;4.50;;;2.23;;
60030;SDS011;45901;47.600;9.890;2023-08-17T07:17:32;4.77;;;2.40;;
60030;SDS011;45901;47.600;9.890;2023-08-17T07:20:01;5.77;;;2.50;;
60030;SDS011;45901;47.600;9.890;2023-08-17T07:22:30;5.33;;;2.60;;
60030;SDS011;45901;47.600;9.890;2023-08-17T07:24:57;5.27;;;2.30;;
60030;SDS011;45901;47.600;9.890;2023-08-17T07:27:25;5.50;;;2.87;;
60030;SDS011;45901;47.600;9.890;2023-08-17T07:29:52;6.27;;;2.33;;
60030;SDS011;45901;47.600;9.890;2023-08-17T07:32:19;3.83;;;2.17;;
60030;SDS011;45901;47.600;9.890;2023-08-17T07:34:46;6.93;;;2.10;;
60030;SDS011;45901;47.600;9.890;2023-08-17T07:37:13;7.13;;;2.47;;
60030;SDS011;45901;47.600;9.890;2023-08-17T07:39:42;4.63;;;2.60;;
60030;SDS011;45901;47.600;9.890;2023-08-17T07:42:08;5.17;;;2.60;;
60030;SDS011;45901;47.600;9.890;2023-08-17T07:44:35;2.70;;;2.13;;
60030;SDS011;45901;47.600;9.890;2023-08-17T07:47:04;5.57;;;2.70;;
60030;SDS011;45901;47.600;9.890;2023-08-17T07:49:31;9.13;;;2.70;;
60030;SDS011;45901;47.600;9.890;2023-08-17T07:51:58;9.07;;;3.03;;
60030;SDS011;45901;47.600;9.890;2023-08-17T07:54:25;4.20;;;2.60;;
60030;SDS011;45901;47.600;9.890;2023-08-17T07:56:54;6.67;;;2.60;;
60030;SDS011;45901;47.600;9.890;2023-08-17T07:59:21;3.83;;;2.40;;
60030;SDS011;45901;47.600;9.890;2023-08-17T08:01:48;4.73;;;2.53;;
60030;SDS011;45901;47.600;9.890;2023-08-17T08:04:15;4.83;;;2.37;;
60030;SDS011;45901;47.600;9.890;2023-08-17T08:06:42;5.43;;;2.77;;
60030;SDS011;45901;47.600;9.890;2023-08-17T08:09:09;3.67;;;2.10;;
60030;SDS011;45901;47.600;9.890;2023-08-17T08:11:37;3.87;;;2.00;;
60030;SDS011;45901;47.600;9.890;2023-08-17T08:14:05;5.33;;;2.40;;
60030;SDS011;45901;47.600;9.890;2023-08-17T08:16:32;3.20;;;2.47;;
60030;SDS011;45901;47.600;9.890;2023-08-17T08:18:59;8.03;;;2.90;;
60030;SDS011;45901;47.600;9.890;2023-08-17T08:21:26;10.00;;;3.10;;
60030;SDS011;45901;47.600;9.890;2023-08-17T08:23:53;4.77;;;2.83;;
60030;SDS011;45901;47.600;9.890;2023-08-17T08:26:20;6.03;;;2.47;;
60030;SDS011;45901;47.600;9.890;2023-08-17T08:28:47;5.73;;;2.30;;
60030;SDS011;45901;47.600;9.890;2023-08-17T08:31:16;3.97;;;2.60;;
60030;SDS011;45901;47.600;9.890;2023-08-17T08:33:42;5.38;;;2.33;;
60030;SDS011;45901;47.600;9.890;2023-08-17T08:36:10;4.68;;;2.30;;
60030;SDS011;45901;47.600;9.890;2023-08-17T08:38:37;6.00;;;2.20;;
60030;SDS011;45901;47.600;9.890;2023-08-17T08:41:06;4.78;;;1.98;;
60030;SDS011;45901;47.600;9.890;2023-08-17T08:43:35;6.38;;;2.10;;
60030;SDS011;45901;47.600;9.890;2023-08-17T08:46:03;3.70;;;2.28;;
60030;SDS011;45901;47.600;9.890;2023-08-17T08:48:32;6.00;;;2.10;;
60030;SDS011;45901;47.600;9.890;2023-08-17T08:51:00;2.65;;;2.00;;
60030;SDS011;45901;47.600;9.890;2023-08-17T08:53:31;2.72;;;1.70;;
60030;SDS011;45901;47.600;9.890;2023-08-17T08:56:03;4.50;;;1.80;;
60030;SDS011;45901;47.600;9.890;2023-08-17T08:58:33;3.70;;;1.77;;
60030;SDS011;45901;47.600;9.890;2023-08-17T09:01:01;2.13;;;1.40;;
60030;SDS011;45901;47.600;9.890;2023-08-17T09:03:29;4.97;;;1.92;;
60030;SDS011;45901;47.600;9.890;2023-08-17T09:05:59;4.47;;;1.70;;
60030;SDS011;45901;47.600;9.890;2023-08-17T09:08:27;3.17;;;1.75;;
60030;SDS011;45901;47.600;9.890;2023-08-17T09:10:57;5.40;;;1.48;;
60030;SDS011;45901;47.600;9.890;2023-08-17T09:13:24;2.28;;;1.08;;
60030;SDS011;45901;47.600;9.890;2023-08-17T09:15:51;6.10;;;1.80;;
60030;SDS011;45901;47.600;9.890;2023-08-17T09:18:18;4.68;;;1.75;;
60030;SDS011;45901;47.600;9.890;2023-08-17T09:20:47;3.72;;;1.70;;
60030;SDS011;45901;47.600;9.890;2023-08-17T09:23:18;4.07;;;1.90;;
60030;SDS011;45901;47.600;9.890;2023-08-17T09:25:47;5.68;;;1.98;;
60030;SDS011;45901;47.600;9.890;2023-08-17T09:28:17;5.68;;;2.17;;
60030;SDS011;45901;47.600;9.890;2023-08-17T09:30:52;5.15;;;1.90;;
60030;SDS011;45901;47.600;9.890;2023-08-17T09:33:21;4.38;;;2.25;;
60030;SDS011;45901;47.600;9.890;2023-08-17T09:35:51;6.30;;;2.45;;
60030;SDS011;45901;47.600;9.890;2023-08-17T09:38:20;4.95;;;2.08;;
60030;SDS011;45901;47.600;9.890;2023-08-17T09:40:47;5.88;;;2.50;;
60030;SDS011;45901;47.600;9.890;2023-08-17T09:43:15;8.10;;;2.33;;
60030;SDS011;45901;47.600;9.890;2023-08-17T09:45:44;3.90;;;2.28;;
60030;SDS011;45901;47.600;9.890;2023-08-17T09:48:14;5.18;;;2.30;;
60030;SDS011;45901;47.600;9.890;2023-08-17T09:50:42;5.72;;;2.30;;
60030;SDS011;45901;47.600;9.890;2023-08-17T09:53:13;3.72;;;2.33;;
60030;SDS011;45901;47.600;9.890;2023-08-17T09:55:42;6.15;;;2.25;;
60030;SDS011;45901;47.600;9.890;2023-08-17T09:58:10;4.35;;;2.63;;
60030;SDS011;45901;47.600;9.890;2023-08-17T10:00:40;2.75;;;2.03;;
60030;SDS011;45901;47.600;9.890;2023-08-17T10:03:11;6.60;;;2.75;;
60030;SDS011;45901;47.600;9.890;2023-08-17T10:05:42;6.28;;;2.03;;
60030;SDS011;45901;47.600;9.890;2023-08-17T10:08:17;3.13;;;2.08;;
60030;SDS011;45901;47.600;9.890;2023-08-17T10:10:46;5.78;;;2.67;;
60030;SDS011;45901;47.600;9.890;2023-08-17T10:13:16;4.25;;;2.13;;
60030;SDS011;45901;47.600;9.890;2023-08-17T10:15:55;5.65;;;2.28;;
60030;SDS011;45901;47.600;9.890;2023-08-17T10:18:29;6.68;;;2.38;;
60030;SDS011;45901;47.600;9.890;2023-08-17T10:21:02;2.97;;;2.10;;
60030;SDS011;45901;47.600;9.890;2023-08-17T10:23:37;3.60;;;2.50;;
60030;SDS011;45901;47.600;9.890;2023-08-17T10:26:05;3.55;;;1.92;;
60030;SDS011;45901;47.600;9.890;2023-08-17T10:28:34;2.97;;;2.25;;
60030;SDS011;45901;47.600;9.890;2023-08-17T10:31:01;3.75;;;2.42;;
60030;SDS011;45901;47.600;9.890;2023-08-17T10:33:28;4.40;;;2.20;;
60030;SDS011;45901;47.600;9.890;2023-08-17T10:35:56;4.80;;;2.60;;
60030;SDS011;45901;47.600;9.890;2023-08-17T10:38:23;3.38;;;2.22;;
60030;SDS011;45901;47.600;9.890;2023-08-17T10:46:32;3.85;;;2.45;;
60030;SDS011;45901;47.600;9.890;2023-08-17T10:49:03;5.03;;;2.65;;
60030;SDS011;45901;47.600;9.890;2023-08-17T10:51:32;4.00;;;2.05;;
60030;SDS011;45901;47.600;9.890;2023-08-17T10:54:01;5.43;;;2.22;;
60030;SDS011;45901;47.600;9.890;2023-08-17T10:56:30;4.68;;;2.17;;
60030;SDS011;45901;47.600;9.890;2023-08-17T10:58:59;3.30;;;2.13;;
60030;SDS011;45901;47.600;9.890;2023-08-17T11:01:33;5.50;;;2.00;;
60030;SDS011;45901;47.600;9.890;2023-08-17T11:04:08;3.03;;;2.25;;
60030;SDS011;45901;47.600;9.890;2023-08-17T11:06:37;5.78;;;2.90;;
60030;SDS011;45901;47.600;9.890;2023-08-17T11:09:06;10.00;;;2.30;;
60030;SDS011;45901;47.600;9.890;2023-08-17T11:11:35;5.78;;;2.38;;
60030;SDS011;45901;47.600;9.890;2023-08-17T11:14:02;4.07;;;2.40;;
60030;SDS011;45901;47.600;9.890;2023-08-17T11:16:29;6.00;;;2.13;;
60030;SDS011;45901;47.600;9.890;2023-08-17T11:18:56;4.88;;;2.20;;
60030;SDS011;45901;47.600;9.890;2023-08-17T11:21:24;6.57;;;2.30;;
60030;SDS011;45901;47.600;9.890;2023-08-17T11:23:52;4.20;;;1.85;;
60030;SDS011;45901;47.600;9.890;2023-08-17T11:26:23;4.03;;;1.63;;
60030;SDS011;45901;47.600;9.890;2023-08-17T11:28:52;2.88;;;1.60;;
60030;SDS011;45901;47.600;9.890;2023-08-17T11:31:19;5.57;;;2.20;;
60030;SDS011;45901;47.600;9.890;2023-08-17T11:33:46;3.58;;;1.55;;
60030;SDS011;45901;47.600;9.890;2023-08-17T11:36:13;3.92;;;2.00;;
60030;SDS011;45901;47.600;9.890;2023-08-17T11:38:41;3.83;;;1.85;;
60030;SDS011;45901;47.600;9.890;2023-08-17T11:41:10;2.63;;;1.63;;
60030;SDS011;45901;47.600;9.890;2023-08-17T11:43:38;5.82;;;1.60;;
60030;SDS011;45901;47.600;9.890;2023-08-17T11:46:07;3.60;;;1.67;;
60030;SDS011;45901;47.600;9.890;2023-08-17T11:48:34;2.45;;;1.77;;
60030;SDS011;45901;47.600;9.890;2023-08-17T11:51:03;4.18;;;2.05;;
60030;SDS011;45901;47.600;9.890;2023-08-17T11:53:33;3.00;;;1.77;;
60030;SDS011;45901;47.600;9.890;2023-08-17T11:56:00;3.35;;;1.70;;
60030;SDS011;45901;47.600;9.890;2023-08-17T11:58:40;2.47;;;1.73;;
60030;SDS011;45901;47.600;9.890;2023-08-17T12:01:10;6.68;;;1.90;;
60030;SDS011;45901;47.600;9.890;2023-08-17T12:03:38;5.13;;;2.55;;
60030;SDS011;45901;47.600;9.890;2023-08-17T12:06:06;5.55;;;2.05;;
60030;SDS011;45901;47.600;9.890;2023-08-17T12:08:34;2.58;;;1.98;;
60030;SDS011;45901;47.600;9.890;2023-08-17T12:11:02;7.18;;;1.98;;
60030;SDS011;45901;47.600;9.890;2023-08-17T12:13:30;3.55;;;2.10;;
60030;SDS011;45901;47.600;9.890;2023-08-17T12:15:58;5.07;;;2.40;;
60030;SDS011;45901;47.600;9.890;2023-08-17T12:18:27;5.80;;;2.28;;
60030;SDS011;45901;47.600;9.890;2023-08-17T12:20:54;6.22;;;2.13;;
60030;SDS011;45901;47.600;9.890;2023-08-17T12:23:21;2.97;;;2.33;;
60030;SDS011;45901;47.600;9.890;2023-08-17T12:25:52;8.57;;;1.98;;
60030;SDS011;45901;47.600;9.890;2023-08-17T12:28:20;4.82;;;2.55;;
60030;SDS011;45901;47.600;9.890;2023-08-17T12:30:47;7.28;;;2.90;;
60030;SDS011;45901;47.600;9.890;2023-08-17T12:33:24;8.52;;;3.00;;
60030;SDS011;45901;47.600;9.890;2023-08-17T12:35:53;6.38;;;2.78;;
60030;SDS011;45901;47.600;9.890;2023-08-17T12:38:20;5.15;;;2.72;;
60030;SDS011;45901;47.600;9.890;2023-08-17T12:40:48;3.60;;;2.47;;
60030;SDS011;45901;47.600;9.890;2023-08-17T12:43:15;3.83;;;2.50;;
60030;SDS011;45901;47.600;9.890;2023-08-17T12:45:42;4.85;;;2.85;;
60030;SDS011;45901;47.600;9.890;2023-08-17T12:48:09;6.68;;;3.22;;
60030;SDS011;45901;47.600;9.890;2023-08-17T12:50:37;6.00;;;3.30;;
60030;SDS011;45901;47.600;9.890;2023-08-17T12:53:04;6.63;;;2.60;;
60030;SDS011;45901;47.600;9.890;2023-08-17T12:55:31;4.57;;;2.80;;
60030;SDS011;45901;47.600;9.890;2023-08-17T12:57:58;4.07;;;2.97;;
60030;SDS011;45901;47.600;9.890;2023-08-17T13:00:25;6.85;;;2.90;;
60030;SDS011;45901;47.600;9.890;2023-08-17T13:02:56;12.85;;;3.00;;
60030;SDS011;45901;47.600;9.890;2023-08-17T13:05:23;6.55;;;2.65;;
60030;SDS011;45901;47.600;9.890;2023-08-17T13:07:52;11.73;;;2.80;;
60030;SDS011;45901;47.600;9.890;2023-08-17T13:10:19;7.85;;;3.10;;
60030;SDS011;45901;47.600;9.890;2023-08-17T13:12:46;5.57;;;2.30;;
60030;SDS011;45901;47.600;9.890;2023-08-17T13:15:13;6.47;;;2.50;;
60030;SDS011;45901;47.600;9.890;2023-08-17T13:17:40;5.60;;;2.80;;
60030;SDS011;45901;47.600;9.890;2023-08-17T13:20:08;4.85;;;2.95;;
60030;SDS011;45901;47.600;9.890;2023-08-17T13:22:36;5.40;;;3.20;;
60030;SDS011;45901;47.600;9.890;2023-08-17T13:25:06;8.82;;;3.20;;
60030;SDS011;45901;47.600;9.890;2023-08-17T13:27:34;11.05;;;2.83;;
60030;SDS011;45901;47.600;9.890;2023-08-17T13:30:06;11.20;;;3.00;;
60030;SDS011;45901;47.600;9.890;2023-08-17T13:32:35;7.32;;;3.38;;
60030;SDS011;45901;47.600;9.890;2023-08-17T13:35:02;6.55;;;3.53;;
60030;SDS011;45901;47.600;9.890;2023-08-17T13:37:30;11.90;;;3.90;;
60030;SDS011;45901;47.600;9.890;2023-08-17T13:39:58;5.75;;;3.38;;
60030;SDS011;45901;47.600;9.890;2023-08-17T13:42:26;7.68;;;3.55;;
60030;SDS011;45901;47.600;9.890;2023-08-17T13:44:53;4.28;;;3.10;;
60030;SDS011;45901;47.600;9.890;2023-08-17T13:47:22;6.65;;;3.70;;
60030;SDS011;45901;47.600;9.890;2023-08-17T13:49:52;12.18;;;3.80;;
60030;SDS011;45901;47.600;9.890;2023-08-17T13:52:19;5.65;;;3.45;;
60030;SDS011;45901;47.600;9.890;2023-08-17T13:54:47;6.70;;;3.60;;
60030;SDS011;45901;47.600;9.890;2023-08-17T13:57:19;7.65;;;3.85;;
60030;SDS011;45901;47.600;9.890;2023-08-17T13:59:54;6.40;;;3.63;;
60030;SDS011;45901;47.600;9.890;2023-08-17T14:02:24;6.38;;;3.80;;
60030;SDS011;45901;47.600;9.890;2023-08-17T14:04:56;6.97;;;4.03;;
60030;SDS011;45901;47.600;9.890;2023-08-17T14:07:42;6.38;;;3.80;;
60030;SDS011;45901;47.600;9.890;2023-08-17T14:10:14;7.55;;;4.22;;
60030;SDS011;45901;47.600;9.890;2023-08-17T14:12:46;7.35;;;4.30;;
60030;SDS011;45901;47.600;9.890;2023-08-17T14:15:50;9.65;;;4.32;;
60030;SDS011;45901;47.600;9.890;2023-08-17T14:19:06;9.65;;;4.00;;
60030;SDS011;45901;47.600;9.890;2023-08-17T14:21:45;6.22;;;3.88;;
60030;SDS011;45901;47.600;9.890;2023-08-17T14:24:39;4.53;;;3.80;;
60030;SDS011;45901;47.600;9.890;2023-08-17T14:27:06;9.00;;;3.63;;
60030;SDS011;45901;47.600;9.890;2023-08-17T14:29:33;9.73;;;3.78;;
60030;SDS011;45901;47.600;9.890;2023-08-17T14:32:05;9.73;;;4.03;;
60030;SDS011;45901;47.600;9.890;2023-08-17T14:34:38;8.23;;;4.53;;
60030;SDS011;45901;47.600;9.890;2023-08-17T14:37:11;5.57;;;3.60;;
60030;SDS011;45901;47.600;9.890;2023-08-17T14:39:39;7.32;;;4.07;;
60030;SDS011;45901;47.600;9.890;2023-08-17T14:42:18;8.40;;;4.18;;
60030;SDS011;45901;47.600;9.890;2023-08-17T14:45:20;7.95;;;4.13;;
60030;SDS011;45901;47.600;9.890;2023-08-17T14:48:34;9.43;;;4.03;;
60030;SDS011;45901;47.600;9.890;2023-08-17T14:51:06;6.38;;;4.10;;
60030;SDS011;45901;47.600;9.890;2023-08-17T14:53:33;6.78;;;4.18;;
60030;SDS011;45901;47.600;9.890;2023-08-17T14:56:00;5.57;;;3.80;;
60030;SDS011;45901;47.600;9.890;2023-08-17T14:58:27;8.77;;;4.20;;
60030;SDS011;45901;47.600;9.890;2023-08-17T15:00:54;6.85;;;4.05;;
60030;SDS011;45901;47.600;9.890;2023-08-17T15:03:21;7.03;;;3.92;;
60030;SDS011;45901;47.600;9.890;2023-08-17T15:05:49;6.05;;;3.75;;